Time;durP1;ratioP1;P1;durP2;ratioP2;P2;SDS_P1;SDS_P2;PMS_P1;PMS_P2;Temp;Humidity;BMP_temperature;BMP_pressure;BME280_temperature;BME280_humidity;BME280_pressure;Samples;Min_cycle;Max_cycle;Signal;HPM_P1;HPM_P2
2022/03/13 00:00:53;;;;;;;22.80;12.02;;;10.60;42.60;;;;;;5020457;28;20056;-43
2022/03/13 00:03:21;;;;;;;18.83;10.93;;;10.60;42.70;;;;;;5021780;28;20045;-43
2022/03/13 00:05:51;;;;;;;18.63;10.38;;;10.50;42.50;;;;;;5019469;28;20053;-42
2022/03/13 00:08:25;;;;;;;18.80;10.68;;;10.50;42.50;;;;;;5021983;28;20056;-42
2022/03/13 00:10:56;;;;;;;17.15;10.60;;;10.50;42.50;;;;;;5021679;28;20052;-42
2022/03/13 00:13:30;;;;;;;22.95;11.57;;;10.50;42.50;;;;;;5022458;28;20053;-43
2022/03/13 00:16:00;;;;;;;20.70;11.48;;;10.50;42.40;;;;;;5022179;28;20049;-42
2022/03/13 00:18:27;;;;;;;20.17;11.40;;;10.50;42.40;;;;;;5021947;28;20065;-42
2022/03/13 00:20:55;;;;;;;19.45;11.00;;;10.50;42.30;;;;;;5021480;28;20045;-46
2022/03/13 00:23:23;;;;;;;18.55;10.77;;;10.40;42.10;;;;;;5021509;28;20041;-43
2022/03/13 00:25:51;;;;;;;18.10;10.48;;;10.40;42.10;;;;;;5019520;28;20076;-42
2022/03/13 00:28:18;;;;;;;18.42;9.85;;;10.40;42.10;;;;;;5022380;28;20057;-42
2022/03/13 00:30:48;;;;;;;17.27;10.60;;;10.40;42.00;;;;;;5021993;28;20501;-42
2022/03/13 00:33:15;;;;;;;22.02;11.48;;;10.30;41.90;;;;;;5020872;28;20058;-43
2022/03/13 00:35:43;;;;;;;19.55;11.05;;;10.30;41.90;;;;;;5019534;28;20418;-42
2022/03/13 00:38:11;;;;;;;15.95;9.45;;;10.30;42.00;;;;;;5021899;28;20053;-42
2022/03/13 00:40:39;;;;;;;16.80;10.07;;;10.20;42.50;;;;;;5020015;28;20053;-43
2022/03/13 00:43:08;;;;;;;16.73;9.52;;;10.20;42.00;;;;;;5021236;28;20064;-42
2022/03/13 00:45:35;;;;;;;15.65;10.40;;;10.20;42.00;;;;;;5021149;28;20053;-44
2022/03/13 00:48:05;;;;;;;17.33;10.10;;;10.20;42.00;;;;;;5021562;28;20551;-44
2022/03/13 00:50:33;;;;;;;16.08;9.68;;;10.20;42.00;;;;;;5019392;28;20049;-45
2022/03/13 00:53:00;;;;;;;19.40;10.02;;;10.20;42.10;;;;;;5022099;28;20610;-42
2022/03/13 00:55:28;;;;;;;17.40;10.38;;;10.10;41.90;;;;;;5017687;28;20521;-42
2022/03/13 00:57:55;;;;;;;17.77;9.90;;;10.10;41.80;;;;;;5019289;28;20060;-43
2022/03/13 01:00:23;;;;;;;20.25;10.57;;;10.10;41.60;;;;;;5021071;28;20046;-43
2022/03/13 01:02:50;;;;;;;21.25;10.57;;;10.10;41.40;;;;;;5019421;28;20449;-44
2022/03/13 01:05:23;;;;;;;18.27;10.55;;;10.10;41.30;;;;;;5019143;28;20413;-43
2022/03/13 01:07:51;;;;;;;16.70;9.48;;;10.10;41.20;;;;;;5022675;28;20058;-43
2022/03/13 01:10:19;;;;;;;16.80;9.13;;;10.00;41.20;;;;;;5021455;28;20076;-44
2022/03/13 01:12:46;;;;;;;18.60;10.35;;;10.00;41.20;;;;;;5020451;28;20485;-42
2022/03/13 01:15:14;;;;;;;19.90;10.57;;;10.00;41.20;;;;;;5018555;28;20045;-43
2022/03/13 01:17:42;;;;;;;24.38;10.93;;;9.90;41.00;;;;;;5020160;28;20593;-45
2022/03/13 01:20:21;;;;;;;18.58;10.38;;;9.90;40.90;;;;;;5021559;28;20053;-44
2022/03/13 01:22:49;;;;;;;16.98;10.13;;;9.90;40.90;;;;;;5021279;28;20064;-43
2022/03/13 01:25:17;;;;;;;15.75;9.30;;;9.90;41.00;;;;;;5020161;28;20494;-43
2022/03/13 01:27:45;;;;;;;22.52;11.18;;;9.80;41.00;;;;;;5020032;28;20053;-43
2022/03/13 01:30:14;;;;;;;21.00;11.20;;;9.80;40.90;;;;;;5021056;28;20056;-47
2022/03/13 01:32:41;;;;;;;27.60;11.80;;;9.80;41.00;;;;;;5020522;28;20069;-45
2022/03/13 01:35:10;;;;;;;25.02;11.48;;;9.80;40.90;;;;;;5018709;28;20284;-44
2022/03/13 01:37:40;;;;;;;16.27;9.90;;;9.70;40.80;;;;;;5019461;28;20063;-43
2022/03/13 01:40:10;;;;;;;20.13;12.30;;;9.70;40.90;;;;;;5024823;28;20058;-43
2022/03/13 01:42:40;;;;;;;20.13;11.07;;;9.70;41.00;;;;;;5026141;28;20559;-43
2022/03/13 01:45:11;;;;;;;18.67;10.50;;;9.60;41.00;;;;;;5022053;28;20049;-43
2022/03/13 01:47:39;;;;;;;20.77;10.60;;;9.60;41.00;;;;;;5023188;28;20057;-43
2022/03/13 01:50:09;;;;;;;16.85;9.75;;;9.60;41.00;;;;;;5023710;28;20052;-44
2022/03/13 01:52:39;;;;;;;16.90;10.02;;;9.60;40.90;;;;;;5024530;28;20049;-43
2022/03/13 01:55:08;;;;;;;19.27;10.52;;;9.60;40.80;;;;;;5022952;28;20060;-43
2022/03/13 01:57:37;;;;;;;17.92;10.32;;;9.50;40.70;;;;;;5024252;28;20069;-43
2022/03/13 02:00:09;;;;;;;23.48;12.52;;;9.50;40.80;;;;;;5024541;28;20076;-43
2022/03/13 02:02:37;;;;;;;25.35;11.50;;;9.50;40.90;;;;;;5024531;28;20049;-42
2022/03/13 02:05:05;;;;;;;18.98;11.02;;;9.50;40.90;;;;;;5020259;28;20124;-43
2022/03/13 02:07:35;;;;;;;29.05;12.05;;;9.40;40.80;;;;;;5021902;28;20497;-43
2022/03/13 02:10:05;;;;;;;19.00;10.90;;;9.40;40.80;;;;;;5024330;28;20060;-42
2022/03/13 02:12:34;;;;;;;18.02;10.02;;;9.40;40.70;;;;;;5025785;28;20061;-42
2022/03/13 02:15:01;;;;;;;17.42;10.00;;;9.40;40.70;;;;;;5022432;28;20057;-42
2022/03/13 02:17:34;;;;;;;14.65;8.75;;;9.40;40.70;;;;;;5023693;28;20049;-42
2022/03/13 02:20:02;;;;;;;14.83;9.50;;;9.40;40.60;;;;;;5022862;28;20421;-43
2022/03/13 02:22:31;;;;;;;18.52;10.35;;;9.40;41.00;;;;;;5022889;28;20536;-42
2022/03/13 02:25:00;;;;;;;16.83;9.70;;;9.30;40.20;;;;;;5023019;28;20053;-43
2022/03/13 02:27:29;;;;;;;19.30;10.75;;;9.30;40.00;;;;;;5023584;28;20061;-43
2022/03/13 02:29:57;;;;;;;20.35;10.90;;;9.30;39.80;;;;;;5023999;28;20054;-45
2022/03/13 02:32:25;;;;;;;20.73;10.57;;;9.30;39.60;;;;;;5023569;28;20057;-43
2022/03/13 02:34:56;;;;;;;20.98;10.68;;;9.30;39.40;;;;;;5021772;28;20060;-43
2022/03/13 02:37:36;;;;;;;17.20;10.10;;;9.30;39.30;;;;;;5022397;28;20054;-43
2022/03/13 02:40:07;;;;;;;19.75;10.30;;;9.30;39.30;;;;;;5022304;28;20057;-43
2022/03/13 02:42:35;;;;;;;18.05;10.80;;;9.30;39.30;;;;;;5023770;28;20053;-43
2022/03/13 02:45:02;;;;;;;19.85;11.00;;;9.30;39.10;;;;;;5021460;28;20073;-43
2022/03/13 02:47:30;;;;;;;23.45;10.02;;;9.30;39.10;;;;;;5024100;28;20045;-43
2022/03/13 02:49:57;;;;;;;17.60;9.32;;;9.30;39.00;;;;;;5022253;28;20057;-43
2022/03/13 02:52:25;;;;;;;20.27;10.63;;;9.30;39.00;;;;;;5022669;28;20050;-45
2022/03/13 02:54:52;;;;;;;21.15;10.93;;;9.30;39.00;;;;;;5020760;28;20053;-43
2022/03/13 02:57:21;;;;;;;21.48;10.35;;;9.30;38.60;;;;;;5024872;28;20057;-43
2022/03/13 02:59:49;;;;;;;20.88;10.52;;;9.30;38.60;;;;;;5023181;28;20049;-43
2022/03/13 03:02:18;;;;;;;18.25;9.48;;;9.20;38.50;;;;;;5022947;28;20406;-43
2022/03/13 03:04:48;;;;;;;16.55;10.73;;;9.20;38.50;;;;;;5019580;28;20517;-42
2022/03/13 03:07:15;;;;;;;17.10;9.75;;;9.20;38.60;;;;;;5022862;28;20053;-42
2022/03/13 03:09:43;;;;;;;17.90;10.52;;;9.30;38.60;;;;;;5023214;28;20064;-43
2022/03/13 03:12:11;;;;;;;19.92;9.82;;;9.20;38.40;;;;;;5024200;28;20064;-43
2022/03/13 03:14:40;;;;;;;19.30;9.88;;;9.20;38.30;;;;;;5021301;28;20054;-45
2022/03/13 03:17:07;;;;;;;18.27;10.45;;;9.20;38.30;;;;;;5022415;28;20329;-43
2022/03/13 03:19:35;;;;;;;19.33;10.50;;;9.20;38.30;;;;;;5023272;28;20069;-43
2022/03/13 03:22:02;;;;;;;19.27;10.15;;;9.20;38.20;;;;;;5023023;28;20065;-44
2022/03/13 03:24:30;;;;;;;19.35;9.93;;;9.20;38.20;;;;;;5020518;28;20494;-45
2022/03/13 03:26:58;;;;;;;16.13;9.15;;;9.20;38.40;;;;;;5023412;28;20058;-43
2022/03/13 03:29:27;;;;;;;18.10;9.57;;;9.10;38.30;;;;;;5021916;28;20072;-42
2022/03/13 03:31:56;;;;;;;20.08;10.48;;;9.20;38.40;;;;;;5023633;28;20513;-44
2022/03/13 03:34:25;;;;;;;19.48;9.27;;;9.10;38.10;;;;;;5019856;28;20498;-42
2022/03/13 03:36:55;;;;;;;28.40;11.43;;;9.10;38.00;;;;;;5023176;28;20405;-43
2022/03/13 03:39:23;;;;;;;15.27;9.05;;;9.10;37.90;;;;;;5022732;28;20054;-42
2022/03/13 03:41:53;;;;;;;18.10;9.65;;;9.00;37.90;;;;;;5023438;28;20061;-42
2022/03/13 03:44:21;;;;;;;19.05;9.40;;;9.00;38.00;;;;;;5019136;28;20050;-42
2022/03/13 03:46:50;;;;;;;18.30;9.65;;;9.00;37.90;;;;;;5020440;28;20060;-42
2022/03/13 03:49:19;;;;;;;19.98;10.75;;;9.00;37.80;;;;;;5021730;28;20061;-42
2022/03/13 03:51:47;;;;;;;20.27;10.25;;;8.90;37.40;;;;;;5023095;28;20053;-42
2022/03/13 03:54:15;;;;;;;19.90;10.30;;;8.90;37.20;;;;;;5020339;28;20061;-43
2022/03/13 03:56:43;;;;;;;18.05;10.50;;;8.90;37.30;;;;;;5023541;28;20049;-42
2022/03/13 03:59:11;;;;;;;17.75;9.25;;;8.90;37.20;;;;;;5021856;28;20053;-42
2022/03/13 04:01:40;;;;;;;16.48;9.73;;;8.90;37.20;;;;;;5021544;28;20485;-44
2022/03/13 04:04:08;;;;;;;17.75;9.70;;;8.90;37.00;;;;;;5019243;28;20053;-42
2022/03/13 04:06:38;;;;;;;23.52;10.07;;;8.80;36.90;;;;;;5022922;28;20429;-43
2022/03/13 04:09:06;;;;;;;18.33;10.05;;;8.80;36.70;;;;;;5022772;28;20049;-43
2022/03/13 04:11:34;;;;;;;26.75;10.38;;;8.80;36.70;;;;;;5023110;28;20050;-42
2022/03/13 04:14:02;;;;;;;24.08;10.13;;;8.80;36.70;;;;;;5019661;28;20053;-42
2022/03/13 04:16:29;;;;;;;21.58;11.02;;;8.80;36.70;;;;;;5021209;28;20049;-42
2022/03/13 04:18:57;;;;;;;23.58;10.27;;;8.80;36.70;;;;;;5021170;28;20061;-42
2022/03/13 04:21:24;;;;;;;18.85;9.90;;;8.70;36.50;;;;;;5022109;28;20057;-44
2022/03/13 04:23:53;;;;;;;20.67;9.85;;;8.70;36.50;;;;;;5019040;28;20058;-43
2022/03/13 04:26:22;;;;;;;18.13;9.88;;;8.70;36.50;;;;;;5022054;28;20060;-42
2022/03/13 04:28:50;;;;;;;21.80;10.77;;;8.70;36.60;;;;;;5021562;28;20057;-42
2022/03/13 04:31:18;;;;;;;24.38;11.98;;;8.70;36.70;;;;;;5021190;28;20064;-42
2022/03/13 04:33:47;;;;;;;19.98;10.93;;;8.60;36.50;;;;;;5019310;28;20060;-43
2022/03/13 04:36:15;;;;;;;20.73;11.30;;;8.70;36.50;;;;;;5020949;28;20050;-42
2022/03/13 04:38:42;;;;;;;20.17;10.70;;;8.70;36.40;;;;;;5021133;28;20064;-42
2022/03/13 04:41:12;;;;;;;34.90;11.07;;;8.60;36.30;;;;;;5020725;28;20053;-44
2022/03/13 04:43:39;;;;;;;20.25;10.88;;;8.60;36.20;;;;;;5019760;28;20560;-42
2022/03/13 04:46:07;;;;;;;21.73;10.32;;;8.60;36.30;;;;;;5017309;28;20866;-42
2022/03/13 04:48:35;;;;;;;21.52;10.75;;;8.60;36.40;;;;;;5019710;28;20405;-42
2022/03/13 04:51:03;;;;;;;21.63;10.65;;;8.60;36.50;;;;;;5020402;28;20053;-43
2022/03/13 04:53:31;;;;;;;65.50;28.45;;;8.60;36.20;;;;;;5019962;28;20541;-43
2022/03/13 04:55:58;;;;;;;34.25;16.90;;;8.60;36.30;;;;;;5020594;28;20049;-42
2022/03/13 04:58:27;;;;;;;28.17;14.55;;;8.60;36.40;;;;;;5022283;28;20425;-42
2022/03/13 05:00:55;;;;;;;21.67;11.32;;;8.70;36.40;;;;;;5021102;28;20045;-42
2022/03/13 05:03:23;;;;;;;20.88;11.00;;;8.70;36.30;;;;;;5018800;28;20049;-43
2022/03/13 05:05:50;;;;;;;21.38;11.15;;;8.70;36.20;;;;;;5019128;28;20489;-42
2022/03/13 05:08:18;;;;;;;24.58;10.75;;;8.70;36.10;;;;;;5020627;28;20053;-42
2022/03/13 05:10:47;;;;;;;22.08;10.85;;;8.70;35.90;;;;;;5021364;28;20494;-43
2022/03/13 05:13:16;;;;;;;19.67;10.20;;;8.70;35.90;;;;;;5020827;28;20417;-42
2022/03/13 05:15:47;;;;;;;19.73;10.98;;;8.70;35.70;;;;;;5017111;28;20045;-43
2022/03/13 05:18:14;;;;;;;23.52;10.30;;;8.80;35.70;;;;;;5015184;28;20384;-42
2022/03/13 05:20:43;;;;;;;24.23;10.98;;;8.80;35.60;;;;;;5019154;28;20068;-44
2022/03/13 05:23:10;;;;;;;20.27;10.35;;;8.80;35.40;;;;;;5020257;28;20049;-44
2022/03/13 05:25:40;;;;;;;19.60;9.85;;;8.90;35.50;;;;;;5018760;28;20058;-42
2022/03/13 05:28:09;;;;;;;21.23;10.18;;;8.80;35.60;;;;;;5020863;28;20409;-43
2022/03/13 05:30:37;;;;;;;21.52;10.73;;;8.90;35.50;;;;;;5016713;28;20053;-42
2022/03/13 05:33:07;;;;;;;32.30;16.55;;;8.90;35.30;;;;;;5017521;28;20056;-42
2022/03/13 05:35:35;;;;;;;21.25;12.18;;;8.90;35.40;;;;;;5018193;28;20056;-42
2022/03/13 05:38:03;;;;;;;20.98;11.02;;;8.90;35.50;;;;;;5022357;28;20498;-42
2022/03/13 05:40:36;;;;;;;17.83;10.23;;;9.00;35.60;;;;;;5020916;28;20057;-42
2022/03/13 05:43:04;;;;;;;19.13;9.70;;;9.00;35.30;;;;;;5018659;28;20056;-42
2022/03/13 05:45:32;;;;;;;18.30;9.70;;;9.00;35.00;;;;;;5017566;28;20053;-42
2022/03/13 05:48:02;;;;;;;18.60;9.65;;;9.00;35.00;;;;;;5020298;28;20087;-43
2022/03/13 05:50:31;;;;;;;17.75;9.85;;;9.00;34.90;;;;;;5018896;28;20061;-42
2022/03/13 05:52:59;;;;;;;18.15;9.88;;;9.10;34.80;;;;;;5016048;28;20053;-42
2022/03/13 05:55:27;;;;;;;16.75;9.02;;;9.10;34.90;;;;;;5017878;28;20112;-42
2022/03/13 05:57:55;;;;;;;19.33;9.57;;;9.10;34.90;;;;;;5017253;28;20061;-42
2022/03/13 06:00:23;;;;;;;40.90;19.83;;;9.10;34.70;;;;;;5020199;28;20069;-42
2022/03/13 06:02:51;;;;;;;54.47;23.02;;;9.10;34.70;;;;;;5020610;28;20068;-42
2022/03/13 06:05:19;;;;;;;25.08;12.57;;;9.10;34.80;;;;;;5019137;28;20054;-42
2022/03/13 06:07:49;;;;;;;20.60;10.68;;;9.20;34.60;;;;;;5018680;28;20057;-42
2022/03/13 06:10:17;;;;;;;17.48;9.02;;;9.20;34.80;;;;;;5020103;28;20076;-42
2022/03/13 06:12:45;;;;;;;19.63;9.40;;;9.20;34.70;;;;;;5019985;28;20072;-42
2022/03/13 06:15:13;;;;;;;15.93;9.40;;;9.20;34.70;;;;;;5019234;28;20050;-43
2022/03/13 06:17:43;;;;;;;19.25;9.88;;;9.20;34.60;;;;;;5022340;28;20425;-43
2022/03/13 06:20:12;;;;;;;15.32;9.52;;;9.20;34.60;;;;;;5019329;28;20072;-44
2022/03/13 06:22:40;;;;;;;16.38;9.23;;;9.20;34.60;;;;;;5020794;28;20053;-42
2022/03/13 06:25:11;;;;;;;18.13;9.70;;;9.20;34.50;;;;;;5018875;28;20041;-46
2022/03/13 06:27:40;;;;;;;14.70;8.73;;;9.30;34.60;;;;;;5023697;28;20064;-43
2022/03/13 06:30:13;;;;;;;21.20;9.50;;;9.30;34.60;;;;;;5022965;28;20505;-43
2022/03/13 06:32:42;;;;;;;18.80;10.23;;;9.30;34.70;;;;;;5023406;28;20548;-42
2022/03/13 06:35:10;;;;;;;17.83;9.13;;;9.30;34.80;;;;;;5018802;28;20053;-43
2022/03/13 06:37:40;;;;;;;18.50;10.00;;;9.40;34.80;;;;;;5021765;28;20524;-42
2022/03/13 06:40:10;;;;;;;16.90;9.63;;;9.40;34.60;;;;;;5024193;28;20057;-42
2022/03/13 06:42:38;;;;;;;16.25;9.18;;;9.40;34.60;;;;;;5022321;28;20076;-42
2022/03/13 06:45:10;;;;;;;16.92;8.90;;;9.40;34.80;;;;;;5018189;28;20049;-43
2022/03/13 06:47:38;;;;;;;16.02;9.50;;;9.50;34.80;;;;;;5021121;28;20053;-42
2022/03/13 06:50:08;;;;;;;18.80;9.98;;;9.50;34.80;;;;;;5022020;28;20053;-42
2022/03/13 06:52:36;;;;;;;16.33;9.13;;;9.50;34.70;;;;;;5021873;28;20057;-44
2022/03/13 06:55:04;;;;;;;20.77;9.50;;;9.50;34.60;;;;;;5022223;28;20413;-42
2022/03/13 06:57:33;;;;;;;17.50;9.55;;;9.60;34.40;;;;;;5023347;28;20060;-42
2022/03/13 07:00:02;;;;;;;16.67;8.82;;;9.60;34.20;;;;;;5021626;28;20417;-43
2022/03/13 07:02:29;;;;;;;19.35;10.02;;;9.60;34.20;;;;;;5018087;28;20049;-43
2022/03/13 07:04:56;;;;;;;18.05;9.70;;;9.60;34.10;;;;;;5020261;28;20049;-42
2022/03/13 07:07:24;;;;;;;18.95;9.35;;;9.60;34.00;;;;;;5021566;28;20064;-42
2022/03/13 07:09:52;;;;;;;14.38;8.75;;;9.60;34.00;;;;;;5020631;28;20060;-42
2022/03/13 07:12:20;;;;;;;20.27;8.93;;;9.60;34.20;;;;;;5021465;28;20045;-44
2022/03/13 07:14:49;;;;;;;21.48;9.00;;;9.60;33.90;;;;;;5020679;28;20061;-42
2022/03/13 07:17:18;;;;;;;18.67;8.27;;;9.70;34.00;;;;;;5020460;28;20049;-44
2022/03/13 07:19:46;;;;;;;20.08;8.45;;;9.70;34.00;;;;;;5020678;28;20064;-42
2022/03/13 07:22:14;;;;;;;13.73;8.13;;;9.70;33.80;;;;;;5022051;28;20072;-43
2022/03/13 07:24:42;;;;;;;14.80;8.18;;;9.80;34.30;;;;;;5022209;28;20061;-43
2022/03/13 07:27:11;;;;;;;15.75;9.30;;;9.80;33.70;;;;;;5020828;28;20065;-42
2022/03/13 07:29:38;;;;;;;19.92;8.10;;;9.80;33.70;;;;;;5021244;28;20053;-42
2022/03/13 07:32:08;;;;;;;16.13;8.73;;;9.80;34.20;;;;;;5021170;28;20049;-44
2022/03/13 07:34:36;;;;;;;14.90;8.68;;;9.90;34.00;;;;;;5019543;28;20064;-44
2022/03/13 07:37:04;;;;;;;16.85;8.13;;;9.90;33.90;;;;;;5019400;28;20502;-42
2022/03/13 07:39:31;;;;;;;17.45;8.20;;;9.90;33.80;;;;;;5023977;28;20057;-42
2022/03/13 07:41:59;;;;;;;18.13;8.63;;;10.00;34.00;;;;;;5023598;28;20072;-42
2022/03/13 07:44:27;;;;;;;14.00;8.10;;;10.00;33.70;;;;;;5020689;28;20464;-42
2022/03/13 07:46:54;;;;;;;16.50;8.38;;;10.00;33.30;;;;;;5019722;28;20057;-42
2022/03/13 07:49:23;;;;;;;14.40;8.07;;;10.10;33.50;;;;;;5020004;28;20741;-44
2022/03/13 07:51:51;;;;;;;16.00;8.30;;;10.10;33.50;;;;;;5018401;28;20057;-42
2022/03/13 07:54:20;;;;;;;14.73;8.10;;;10.20;33.70;;;;;;5023355;28;20520;-43
2022/03/13 07:56:48;;;;;;;46.15;19.08;;;10.20;33.60;;;;;;5021715;28;20518;-43
2022/03/13 07:59:15;;;;;;;30.38;13.75;;;10.20;33.80;;;;;;5022612;28;20069;-42
2022/03/13 08:01:43;;;;;;;17.17;9.48;;;10.30;34.30;;;;;;5022995;28;20057;-42
2022/03/13 08:04:10;;;;;;;15.75;9.15;;;10.30;33.80;;;;;;5021926;28;20054;-42
2022/03/13 08:06:39;;;;;;;17.50;8.73;;;10.40;33.60;;;;;;5023082;28;20053;-45
2022/03/13 08:09:08;;;;;;;14.43;7.28;;;10.50;33.60;;;;;;5023736;28;20064;-42
2022/03/13 08:11:38;;;;;;;14.35;8.30;;;10.50;33.70;;;;;;5024445;28;20053;-43
2022/03/13 08:14:07;;;;;;;13.55;7.57;;;10.60;33.50;;;;;;5020643;28;20383;-45
2022/03/13 08:16:35;;;;;;;14.27;8.25;;;10.60;33.50;;;;;;5021035;28;20532;-42
2022/03/13 08:19:03;;;;;;;14.98;7.85;;;10.70;33.10;;;;;;5020957;28;20080;-42
2022/03/13 08:21:30;;;;;;;20.17;10.82;;;10.70;33.50;;;;;;5023148;28;20062;-43
2022/03/13 08:23:59;;;;;;;16.88;9.40;;;10.70;34.20;;;;;;5022387;28;20053;-42
2022/03/13 08:26:27;;;;;;;19.20;9.32;;;10.80;34.10;;;;;;5018163;28;20053;-44
2022/03/13 08:28:55;;;;;;;15.07;7.90;;;10.90;34.10;;;;;;5023469;28;20060;-43
2022/03/13 08:31:22;;;;;;;16.45;8.63;;;10.90;33.90;;;;;;5021385;28;20057;-43
2022/03/13 08:33:50;;;;;;;14.55;8.60;;;10.90;33.40;;;;;;5021826;28;20064;-42
2022/03/13 08:36:17;;;;;;;13.20;7.90;;;11.00;33.10;;;;;;5022603;28;20056;-42
2022/03/13 08:38:45;;;;;;;15.65;7.63;;;11.00;33.40;;;;;;5024266;28;20068;-42
2022/03/13 08:41:14;;;;;;;15.48;8.80;;;11.10;33.20;;;;;;5023729;28;20054;-45
2022/03/13 08:43:41;;;;;;;16.25;8.05;;;11.20;33.20;;;;;;5022143;28;20057;-43
2022/03/13 08:46:12;;;;;;;15.55;8.80;;;11.20;33.10;;;;;;5023470;28;20057;-42
2022/03/13 08:48:40;;;;;;;12.40;8.07;;;11.30;33.20;;;;;;5020102;28;20057;-42
2022/03/13 08:51:08;;;;;;;12.63;7.93;;;11.40;33.00;;;;;;5023314;28;20054;-44
2022/03/13 08:53:35;;;;;;;15.65;8.32;;;11.40;33.00;;;;;;5022226;28;20060;-41
2022/03/13 08:56:03;;;;;;;16.70;8.63;;;11.50;33.20;;;;;;5021986;28;20060;-42
2022/03/13 08:58:32;;;;;;;15.52;8.60;;;11.50;33.10;;;;;;5022585;28;20049;-42
2022/03/13 09:01:00;;;;;;;17.13;9.50;;;11.50;33.30;;;;;;5022437;28;20065;-45
2022/03/13 09:03:28;;;;;;;15.63;8.45;;;11.60;33.40;;;;;;5022257;28;20061;-42
2022/03/13 09:05:56;;;;;;;16.25;9.02;;;11.60;33.30;;;;;;5021544;28;20068;-41
2022/03/13 09:08:23;;;;;;;20.33;8.13;;;11.70;33.40;;;;;;5021751;28;20049;-44
2022/03/13 09:10:52;;;;;;;17.63;9.38;;;11.70;33.60;;;;;;5022760;28;20060;-43
2022/03/13 09:13:20;;;;;;;17.17;9.55;;;11.80;33.50;;;;;;5023468;28;20053;-42
2022/03/13 09:15:49;;;;;;;16.23;9.27;;;11.80;33.70;;;;;;5020810;28;20502;-42
2022/03/13 09:18:17;;;;;;;18.38;8.73;;;11.90;33.90;;;;;;5021550;28;20858;-42
2022/03/13 09:20:45;;;;;;;19.70;9.80;;;11.90;33.90;;;;;;5021947;28;20080;-42
2022/03/13 09:23:12;;;;;;;19.70;8.73;;;12.00;34.00;;;;;;5022503;28;20057;-43
2022/03/13 09:25:40;;;;;;;21.27;9.68;;;12.00;34.10;;;;;;5021319;28;20103;-44
2022/03/13 09:28:08;;;;;;;17.35;10.25;;;12.10;34.40;;;;;;5022635;28;20052;-43
2022/03/13 09:30:36;;;;;;;16.95;9.43;;;12.20;34.60;;;;;;5020959;28;20508;-43
2022/03/13 09:33:04;;;;;;;18.13;10.63;;;12.30;34.40;;;;;;5022327;28;20061;-42
2022/03/13 09:35:32;;;;;;;17.80;9.98;;;12.30;34.30;;;;;;5020409;28;20440;-41
2022/03/13 09:38:00;;;;;;;20.95;9.82;;;12.40;34.40;;;;;;5021471;28;20049;-42
2022/03/13 09:40:28;;;;;;;17.00;9.18;;;12.50;34.00;;;;;;5022025;28;20068;-42
2022/03/13 09:42:56;;;;;;;18.70;9.98;;;12.60;34.30;;;;;;5021732;28;20064;-43
2022/03/13 09:45:23;;;;;;;18.17;10.38;;;12.70;34.50;;;;;;5021022;28;20090;-43
2022/03/13 09:47:51;;;;;;;17.92;10.07;;;12.70;34.30;;;;;;5022051;28;20057;-42
2022/03/13 09:50:21;;;;;;;16.40;9.80;;;12.80;34.10;;;;;;5020777;28;20062;-42
2022/03/13 09:52:49;;;;;;;17.02;9.95;;;12.90;34.30;;;;;;5023139;28;20656;-42
2022/03/13 09:55:17;;;;;;;17.17;10.23;;;12.90;34.30;;;;;;5021209;28;20064;-41
2022/03/13 09:57:48;;;;;;;17.98;10.15;;;13.00;34.20;;;;;;5021863;28;20056;-42
2022/03/13 10:00:21;;;;;;;16.65;9.80;;;13.00;34.00;;;;;;5021327;28;20069;-42
2022/03/13 10:02:52;;;;;;;16.47;9.90;;;13.10;33.90;;;;;;5026051;28;20053;-42
2022/03/13 10:05:22;;;;;;;17.83;10.27;;;13.10;33.90;;;;;;5023445;28;20061;-42
2022/03/13 10:07:55;;;;;;;21.27;11.65;;;13.20;34.10;;;;;;5025590;28;21286;-42
2022/03/13 10:10:24;;;;;;;19.48;10.90;;;13.20;33.80;;;;;;5026521;28;20057;-42
2022/03/13 10:12:51;;;;;;;18.92;10.68;;;13.30;33.90;;;;;;5025033;28;20501;-44
2022/03/13 10:15:19;;;;;;;20.50;10.50;;;13.30;33.80;;;;;;5024565;28;20049;-43
2022/03/13 10:17:48;;;;;;;21.10;11.55;;;13.30;33.80;;;;;;5025266;28;20045;-42
2022/03/13 10:20:19;;;;;;;16.10;9.70;;;13.40;33.90;;;;;;5024483;28;20486;-42
2022/03/13 10:22:50;;;;;;;17.83;9.27;;;13.40;33.70;;;;;;5024735;28;20076;-42
2022/03/13 10:25:29;;;;;;;21.65;10.45;;;13.40;33.80;;;;;;5024321;28;20057;-42
2022/03/13 10:28:11;;;;;;;18.27;10.80;;;13.40;33.70;;;;;;5023979;28;20057;-42
2022/03/13 10:30:39;;;;;;;19.52;11.85;;;13.40;33.40;;;;;;5025207;28;20058;-42
2022/03/13 10:33:08;;;;;;;18.33;11.27;;;13.50;33.70;;;;;;5025615;28;20071;-42
2022/03/13 10:35:36;;;;;;;20.00;11.27;;;13.50;33.80;;;;;;5022259;28;20049;-43
2022/03/13 10:38:14;;;;;;;18.63;10.65;;;13.50;33.20;;;;;;5024489;28;20053;-42
2022/03/13 10:40:42;;;;;;;18.58;11.27;;;13.60;33.30;;;;;;5025323;28;20064;-44
2022/03/13 10:43:10;;;;;;;19.25;10.85;;;13.70;33.40;;;;;;5023246;28;20398;-43
2022/03/13 10:45:39;;;;;;;21.08;11.55;;;13.70;33.30;;;;;;5024086;28;20068;-42
2022/03/13 10:48:28;;;;;;;19.10;10.73;;;13.80;33.70;;;;;;5024970;28;20053;-43
2022/03/13 10:50:57;;;;;;;23.98;10.73;;;13.90;33.60;;;;;;5024545;28;20736;-42
2022/03/13 10:53:27;;;;;;;21.15;10.95;;;13.90;33.70;;;;;;5024929;28;20512;-43
2022/03/13 10:56:02;;;;;;;17.65;11.23;;;14.00;33.90;;;;;;5022421;28;20413;-44
2022/03/13 10:58:31;;;;;;;22.27;11.88;;;14.00;33.70;;;;;;5024637;28;20113;-42
2022/03/13 11:01:05;;;;;;;18.63;11.35;;;14.10;33.20;;;;;;5024900;28;20390;-42
2022/03/13 11:03:34;;;;;;;24.08;11.57;;;14.20;32.80;;;;;;5024660;28;20851;-43
2022/03/13 11:06:02;;;;;;;25.88;10.93;;;14.20;33.20;;;;;;5024243;28;20658;-42
2022/03/13 11:08:31;;;;;;;17.17;10.38;;;14.30;33.40;;;;;;5025822;28;20584;-42
2022/03/13 11:11:00;;;;;;;20.58;10.73;;;14.40;33.00;;;;;;5024823;28;20054;-42
2022/03/13 11:13:28;;;;;;;20.60;11.15;;;14.40;33.10;;;;;;5024779;28;20072;-42
2022/03/13 11:15:57;;;;;;;18.05;11.05;;;14.40;32.60;;;;;;5022221;28;20489;-43
2022/03/13 11:18:32;;;;;;;20.00;11.00;;;14.50;32.50;;;;;;5023629;28;20080;-43
2022/03/13 11:21:00;;;;;;;19.73;11.27;;;14.50;32.70;;;;;;5024159;28;20057;-42
2022/03/13 11:23:32;;;;;;;21.83;11.65;;;14.60;32.90;;;;;;5024940;28;20061;-43
2022/03/13 11:26:02;;;;;;;21.80;11.68;;;14.60;33.10;;;;;;5021817;28;20049;-43
2022/03/13 11:28:29;;;;;;;20.38;11.77;;;14.60;32.50;;;;;;5023487;28;20046;-43
2022/03/13 11:30:57;;;;;;;19.55;11.15;;;14.70;32.60;;;;;;5025132;28;20064;-42
2022/03/13 11:33:32;;;;;;;17.75;10.38;;;14.70;32.90;;;;;;5024061;28;20060;-43
2022/03/13 11:36:28;;;;;;;18.17;10.73;;;14.70;32.50;;;;;;5022601;28;20061;-42
2022/03/13 11:38:58;;;;;;;19.08;10.55;;;14.70;32.60;;;;;;5024912;28;20057;-42
2022/03/13 11:41:39;;;;;;;21.75;11.27;;;14.70;32.50;;;;;;5024007;28;20057;-42
2022/03/13 11:44:36;;;;;;;20.55;11.40;;;14.80;32.60;;;;;;5022878;28;20049;-44
2022/03/13 11:47:21;;;;;;;22.40;11.55;;;14.80;32.70;;;;;;5024097;28;20060;-43
2022/03/13 11:49:49;;;;;;;18.17;11.15;;;14.80;32.20;;;;;;5022729;28;20049;-43
2022/03/13 11:52:33;;;;;;;17.92;10.05;;;14.80;32.30;;;;;;5024255;28;20050;-43
2022/03/13 11:55:04;;;;;;;20.47;10.70;;;14.80;32.70;;;;;;5022814;28;20068;-45
2022/03/13 11:57:50;;;;;;;20.13;10.55;;;14.90;32.80;;;;;;5023570;28;20080;-42
2022/03/13 12:00:31;;;;;;;19.48;10.43;;;14.80;32.10;;;;;;5024482;28;20221;-42
2022/03/13 12:03:14;;;;;;;19.42;10.93;;;14.90;32.50;;;;;;5023974;28;20124;-42
2022/03/13 12:05:52;;;;;;;19.08;10.13;;;15.00;32.90;;;;;;5022418;28;20068;-45
2022/03/13 12:08:23;;;;;;;16.95;10.32;;;15.00;33.10;;;;;;5023778;28;20045;-42
2022/03/13 12:10:52;;;;;;;19.05;10.73;;;15.00;33.20;;;;;;5023636;28;20053;-42
2022/03/13 12:13:23;;;;;;;18.83;10.70;;;15.00;33.30;;;;;;5023233;28;20049;-42
2022/03/13 12:15:51;;;;;;;18.00;10.32;;;15.10;33.10;;;;;;5021853;28;20049;-44
2022/03/13 12:18:24;;;;;;;22.23;11.45;;;15.10;33.10;;;;;;5023652;28;20057;-42
2022/03/13 12:20:54;;;;;;;16.95;10.23;;;15.10;33.10;;;;;;5021566;28;20464;-42
2022/03/13 12:23:31;;;;;;;18.80;11.15;;;15.20;33.20;;;;;;5019012;28;20060;-42
2022/03/13 12:26:18;;;;;;;16.00;9.93;;;15.20;33.10;;;;;;5020185;28;20072;-42
2022/03/13 12:28:48;;;;;;;20.70;11.48;;;15.30;33.30;;;;;;5018902;28;21406;-42
2022/03/13 12:31:16;;;;;;;20.17;11.80;;;15.30;33.40;;;;;;5020613;28;20139;-42
2022/03/13 12:33:47;;;;;;;18.33;10.85;;;15.30;33.50;;;;;;5017745;28;20408;-43
2022/03/13 12:36:15;;;;;;;18.60;10.98;;;15.30;33.70;;;;;;5020216;28;20413;-47
2022/03/13 12:38:49;;;;;;;18.38;10.90;;;15.40;33.80;;;;;;5019971;28;20507;-42
2022/03/13 12:41:16;;;;;;;15.15;9.65;;;15.40;33.70;;;;;;5021479;28;20422;-42
2022/03/13 12:43:52;;;;;;;16.85;9.23;;;15.50;33.70;;;;;;5019764;28;20061;-42
2022/03/13 12:46:21;;;;;;;17.30;10.02;;;15.60;33.80;;;;;;5020975;28;20064;-43